Time,TemperatureF,DewpointF,PressureIn,WindDirection,WindDirectionDegrees,WindSpeedMPH,WindSpeedGustMPH,Humidity,HourlyPrecipIn,Conditions,Clouds,dailyrainin,SoftwareType,DateUTC
2014-04-17 00:00:00,34.9,25.4,30.57,NNE,24,5.0,5.0,68,0.00,,,0.00,VWS V15.00,2014-04-17 04:00:00,
2014-04-17 00:01:00,34.9,25.4,30.57,NNE,24,4.0,5.0,68,0.00,,,0.00,VWS V15.00,2014-04-17 04:01:00,
2014-04-17 00:06:00,35.0,25.9,30.58,NNE,15,2.0,6.0,69,0.00,,,0.00,VWS V15.00,2014-04-17 04:06:00,
2014-04-17 00:11:00,35.2,25.4,30.58,NE,35,3.0,6.0,67,0.00,,,0.00,VWS V15.00,2014-04-17 04:11:00,
2014-04-17 00:16:00,35.3,25.1,30.58,NE,40,3.0,6.0,66,0.00,,,0.00,VWS V15.00,2014-04-17 04:16:00,
2014-04-17 00:21:00,35.3,25.1,30.58,NNE,15,3.0,6.0,66,0.00,,,0.00,VWS V15.00,2014-04-17 04:21:00,
2014-04-17 00:26:00,35.4,25.2,30.57,NNE,30,1.0,6.0,66,0.00,,,0.00,VWS V15.00,2014-04-17 04:26:00,
2014-04-17 00:30:00,35.4,25.2,30.58,NNW,334,4.0,6.0,66,0.00,,,0.00,VWS V15.00,2014-04-17 04:30:00,
2014-04-17 00:31:00,35.4,25.5,30.58,North,5,3.0,4.0,67,0.00,,,0.00,VWS V15.00,2014-04-17 04:31:00,
2014-04-17 00:36:00,35.6,26.1,30.58,NNE,22,3.0,6.0,68,0.00,,,0.00,VWS V15.00,2014-04-17 04:36:00,
2014-04-17 00:41:00,35.6,25.4,30.58,North,11,3.0,6.0,66,0.00,,,0.00,VWS V15.00,2014-04-17 04:41:00,
2014-04-17 00:46:00,35.6,25.0,30.58,NE,42,3.0,6.0,65,0.00,,,0.00,VWS V15.00,2014-04-17 04:46:00,
2014-04-17 00:51:00,35.6,25.7,30.59,NE,49,2.0,6.0,67,0.00,,,0.00,VWS V15.00,2014-04-17 04:51:00,
2014-04-17 00:56:00,35.4,25.5,30.59,NE,40,3.0,6.0,67,0.00,,,0.00,VWS V15.00,2014-04-17 04:56:00,
2014-04-17 01:00:00,35.3,25.1,30.59,NNE,22,1.0,6.0,66,0.00,,,0.00,VWS V15.00,2014-04-17 05:00:00,
2014-04-17 01:01:00,35.3,25.5,30.59,NNE,22,3.0,3.0,67,0.00,,,0.00,VWS V15.00,2014-04-17 05:01:00,
2014-04-17 01:06:00,35.2,25.0,30.59,NE,38,1.0,3.0,66,0.00,,,0.00,VWS V15.00,2014-04-17 05:06:00,
2014-04-17 01:11:00,35.1,25.3,30.60,NE,34,3.0,4.0,67,0.00,,,0.00,VWS V15.00,2014-04-17 05:11:00,
2014-04-17 01:16:00,35.0,24.8,30.59,NNW,343,3.0,5.0,66,0.00,,,0.00,VWS V15.00,2014-04-17 05:16:00,
2014-04-17 01:21:00,35.1,25.3,30.60,NNE,19,1.0,6.0,67,0.00,,,0.00,VWS V15.00,2014-04-17 05:21:00,
2014-04-17 01:26:00,35.1,25.6,30.60,North,355,1.0,6.0,68,0.00,,,0.00,VWS V15.00,2014-04-17 05:26:00,
2014-04-17 01:30:00,35.1,25.6,30.60,NE,38,3.0,6.0,68,0.00,,,0.00,VWS V15.00,2014-04-17 05:30:00,
2014-04-17 01:31:00,35.1,25.6,30.60,NNE,19,3.0,4.0,68,0.00,,,0.00,VWS V15.00,2014-04-17 05:31:00,
2014-04-17 01:36:00,35.2,25.7,30.60,North,5,1.0,4.0,68,0.00,,,0.00,VWS V15.00,2014-04-17 05:36:00,
2014-04-17 01:41:00,35.1,25.6,30.60,NNE,12,3.0,4.0,68,0.00,,,0.00,VWS V15.00,2014-04-17 05:41:00,
2014-04-17 01:46:00,35.1,26.0,30.60,NNE,17,1.0,4.0,69,0.00,,,0.00,VWS V15.00,2014-04-17 05:46:00,
2014-04-17 01:51:00,35.1,26.3,30.60,NNE,27,1.0,4.0,70,0.00,,,0.00,VWS V15.00,2014-04-17 05:51:00,
2014-04-17 01:56:00,35.0,25.5,30.60,NE,38,3.0,4.0,68,0.00,,,0.00,VWS V15.00,2014-04-17 05:56:00,
2014-04-17 02:00:00,34.8,25.7,30.60,NNE,25,2.0,4.0,69,0.00,,,0.00,VWS V15.00,2014-04-17 06:00:00,
2014-04-17 02:01:00,34.8,25.7,30.60,NNE,15,2.0,3.0,69,0.00,,,0.00,VWS V15.00,2014-04-17 06:01:00,
2014-04-17 02:06:00,34.7,25.9,30.61,NNE,23,0.0,3.0,70,0.00,,,0.00,VWS V15.00,2014-04-17 06:06:00,
2014-04-17 02:11:00,34.6,25.8,30.61,NNE,23,1.0,3.0,70,0.00,,,0.00,VWS V15.00,2014-04-17 06:11:00,
2014-04-17 02:16:00,34.5,26.1,30.60,NNE,24,0.0,3.0,71,0.00,,,0.00,VWS V15.00,2014-04-17 06:16:00,
2014-04-17 02:21:00,34.4,26.3,30.61,NNE,24,1.0,3.0,72,0.00,,,0.00,VWS V15.00,2014-04-17 06:21:00,
2014-04-17 02:26:00,34.2,26.1,30.61,NE,36,0.0,3.0,72,0.00,,,0.00,VWS V15.00,2014-04-17 06:26:00,
2014-04-17 02:30:00,34.2,26.5,30.61,NE,36,1.0,3.0,73,0.00,,,0.00,VWS V15.00,2014-04-17 06:30:00,
2014-04-17 02:31:00,34.2,26.5,30.61,NE,36,0.0,2.0,73,0.00,,,0.00,VWS V15.00,2014-04-17 06:31:00,
2014-04-17 02:36:00,34.2,26.8,30.61,NE,36,1.0,2.0,74,0.00,,,0.00,VWS V15.00,2014-04-17 06:36:00,
2014-04-17 02:41:00,34.0,26.3,30.61,NE,36,0.0,2.0,73,0.00,,,0.00,VWS V15.00,2014-04-17 06:41:00,
2014-04-17 02:46:00,33.8,25.7,30.61,NE,36,2.0,3.0,72,0.00,,,0.00,VWS V15.00,2014-04-17 06:46:00,
2014-04-17 02:51:00,33.8,25.7,30.61,NNE,26,2.0,3.0,72,0.00,,,0.00,VWS V15.00,2014-04-17 06:51:00,
2014-04-17 02:56:00,33.9,26.2,30.61,NE,55,1.0,3.0,73,0.00,,,0.00,VWS V15.00,2014-04-17 06:56:00,
2014-04-17 03:00:00,34.1,26.0,30.61,NE,38,3.0,5.0,72,0.00,,,0.00,VWS V15.00,2014-04-17 07:00:00,
2014-04-17 03:01:00,34.1,26.0,30.61,NE,38,3.0,3.0,72,0.00,,,0.00,VWS V15.00,2014-04-17 07:01:00,
2014-04-17 03:06:00,34.2,26.1,30.62,NNE,26,5.0,5.0,72,0.00,,,0.00,VWS V15.00,2014-04-17 07:06:00,
2014-04-17 03:11:00,34.4,26.0,30.62,NNE,21,2.0,6.0,71,0.00,,,0.00,VWS V15.00,2014-04-17 07:11:00,
2014-04-17 03:16:00,34.4,26.0,30.62,NE,34,2.0,6.0,71,0.00,,,0.00,VWS V15.00,2014-04-17 07:16:00,
2014-04-17 03:30:00,34.6,25.8,30.63,NE,45,2.0,6.0,70,0.00,,,0.00,VWS V15.00,2014-04-17 07:30:00,
2014-04-17 04:00:00,35.1,26.0,30.65,NNE,22,4.0,8.0,69,0.00,,,0.00,VWS V15.00,2014-04-17 08:00:00,
2014-04-17 04:50:00,35.1,26.0,30.65,NNE,22,4.0,8.0,69,0.00,,,0.00,VWS V15.00,2014-04-17 08:50:00,
2014-04-17 04:55:00,34.4,25.3,30.65,NE,42,2.0,5.0,69,0.00,,,0.00,VWS V15.00,2014-04-17 08:55:00,
2014-04-17 05:00:00,34.3,24.9,30.65,NNE,20,3.0,6.0,68,0.00,,,0.00,VWS V15.00,2014-04-17 09:00:00,
2014-04-17 05:05:00,34.4,26.0,30.66,NE,49,3.0,6.0,71,0.00,,,0.00,VWS V15.00,2014-04-17 09:05:00,
2014-04-17 05:10:00,34.4,25.6,30.65,NNE,19,4.0,6.0,70,0.00,,,0.00,VWS V15.00,2014-04-17 09:10:00,
2014-04-17 05:15:00,34.4,25.6,30.65,NNE,21,3.0,6.0,70,0.00,,,0.00,VWS V15.00,2014-04-17 09:15:00,
2014-04-17 05:20:00,34.4,26.0,30.66,NE,42,5.0,7.0,71,0.00,,,0.00,VWS V15.00,2014-04-17 09:20:00,
2014-04-17 05:25:00,34.4,26.7,30.66,NE,39,5.0,7.0,73,0.00,,,0.00,VWS V15.00,2014-04-17 09:25:00,
2014-04-17 05:26:00,34.4,26.3,30.65,NNE,14,5.0,7.0,72,0.00,,,0.00,VWS V15.00,2014-04-17 09:26:00,
2014-04-17 05:31:00,34.5,26.1,30.66,NNE,19,5.0,6.0,71,0.00,,,0.00,VWS V15.00,2014-04-17 09:31:00,
2014-04-17 05:36:00,34.5,26.8,30.66,NNE,25,4.0,7.0,73,0.00,,,0.00,VWS V15.00,2014-04-17 09:36:00,
2014-04-17 05:41:00,34.5,26.1,30.66,NE,49,5.0,7.0,71,0.00,,,0.00,VWS V15.00,2014-04-17 09:41:00,
2014-04-17 05:46:00,34.4,26.0,30.66,NE,36,5.0,7.0,71,0.00,,,0.00,VWS V15.00,2014-04-17 09:46:00,
2014-04-17 05:51:00,34.4,26.3,30.66,NNE,18,3.0,7.0,72,0.00,,,0.00,VWS V15.00,2014-04-17 09:51:00,
2014-04-17 05:56:00,34.4,26.0,30.66,NNE,30,4.0,9.0,71,0.00,,,0.00,VWS V15.00,2014-04-17 09:56:00,
2014-04-17 06:01:00,34.3,26.2,30.66,NE,37,4.0,8.0,72,0.00,,,0.00,VWS V15.00,2014-04-17 10:01:00,
2014-04-17 06:06:00,34.2,25.8,30.67,NE,50,3.0,8.0,71,0.00,,,0.00,VWS V15.00,2014-04-17 10:06:00,
2014-04-17 06:11:00,34.2,26.8,30.67,NNE,31,8.0,8.0,74,0.00,,,0.00,VWS V15.00,2014-04-17 10:11:00,
2014-04-17 06:16:00,34.3,26.2,30.67,NNE,26,4.0,8.0,72,0.00,,,0.00,VWS V15.00,2014-04-17 10:16:00,
2014-04-17 06:21:00,34.3,26.2,30.67,NNE,22,5.0,10.0,72,0.00,,,0.00,VWS V15.00,2014-04-17 10:21:00,
2014-04-17 06:26:00,34.3,26.2,30.67,NNE,27,3.0,10.0,72,0.00,,,0.00,VWS V15.00,2014-04-17 10:26:00,
2014-04-17 06:31:00,34.2,26.5,30.67,NNE,33,3.0,5.0,73,0.00,,,0.00,VWS V15.00,2014-04-17 10:31:00,
2014-04-17 06:36:00,34.1,26.4,30.68,NNE,15,3.0,9.0,73,0.00,,,0.00,VWS V15.00,2014-04-17 10:36:00,
2014-04-17 06:41:00,34.1,26.7,30.69,NNE,28,8.0,9.0,74,0.00,,,0.00,VWS V15.00,2014-04-17 10:41:00,
2014-04-17 06:46:00,34.2,26.5,30.69,NNE,17,7.0,10.0,73,0.00,,,0.00,VWS V15.00,2014-04-17 10:46:00,
2014-04-17 06:51:00,34.3,26.9,30.69,NNE,33,5.0,11.0,74,0.00,,,0.00,VWS V15.00,2014-04-17 10:51:00,
2014-04-17 06:56:00,34.3,26.6,30.69,NNE,25,8.0,11.0,73,0.00,,,0.00,VWS V15.00,2014-04-17 10:56:00,
2014-04-17 07:01:00,34.4,27.0,30.70,NNE,20,6.0,7.0,74,0.00,,,0.00,VWS V15.00,2014-04-17 11:01:00,
2014-04-17 07:06:00,34.5,27.1,30.70,NNE,26,7.0,11.0,74,0.00,,,0.00,VWS V15.00,2014-04-17 11:06:00,
2014-04-17 07:11:00,34.6,26.9,30.70,NNE,19,10.0,11.0,73,0.00,,,0.00,VWS V15.00,2014-04-17 11:11:00,
2014-04-17 07:16:00,34.7,27.0,30.70,NE,40,6.0,19.0,73,0.00,,,0.00,VWS V15.00,2014-04-17 11:16:00,
2014-04-17 07:21:00,34.8,26.7,30.71,ENE,65,3.0,19.0,72,0.00,,,0.00,VWS V15.00,2014-04-17 11:21:00,
2014-04-17 07:26:00,34.7,26.6,30.70,NNE,17,7.0,19.0,72,0.00,,,0.00,VWS V15.00,2014-04-17 11:26:00,
2014-04-17 07:31:00,34.8,26.7,30.71,NNE,23,7.0,12.0,72,0.00,,,0.00,VWS V15.00,2014-04-17 11:31:00,
2014-04-17 07:36:00,34.8,26.7,30.71,NE,44,8.0,12.0,72,0.00,,,0.00,VWS V15.00,2014-04-17 11:36:00,
2014-04-17 07:41:00,34.8,26.4,30.71,North,360,5.0,12.0,71,0.00,,,0.00,VWS V15.00,2014-04-17 11:41:00,
2014-04-17 07:46:00,34.8,26.4,30.71,NNE,14,5.0,12.0,71,0.00,,,0.00,VWS V15.00,2014-04-17 11:46:00,
2014-04-17 07:51:00,35.0,26.6,30.71,NE,54,9.0,15.0,71,0.00,,,0.00,VWS V15.00,2014-04-17 11:51:00,
2014-04-17 07:56:00,34.9,26.5,30.71,NE,42,7.0,15.0,71,0.00,,,0.00,VWS V15.00,2014-04-17 11:56:00,
2014-04-17 08:01:00,35.1,26.3,30.71,NNE,24,4.0,9.0,70,0.00,,,0.00,VWS V15.00,2014-04-17 12:01:00,
2014-04-17 08:06:00,35.2,26.8,30.71,NNE,22,6.0,10.0,71,0.00,,,0.00,VWS V15.00,2014-04-17 12:06:00,
2014-04-17 08:11:00,35.4,26.6,30.72,NE,42,11.0,11.0,70,0.00,,,0.00,VWS V15.00,2014-04-17 12:11:00,
2014-04-17 08:16:00,35.5,27.7,30.72,East,100,5.0,12.0,73,0.00,,,0.00,VWS V15.00,2014-04-17 12:16:00,
2014-04-17 08:21:00,35.7,26.9,30.72,NE,40,6.0,12.0,70,0.00,,,0.00,VWS V15.00,2014-04-17 12:21:00,
2014-04-17 08:26:00,35.9,27.1,30.72,NNE,16,8.0,14.0,70,0.00,,,0.00,VWS V15.00,2014-04-17 12:26:00,
2014-04-17 08:31:00,36.3,28.1,30.72,NNE,16,7.0,8.0,72,0.00,,,0.00,VWS V15.00,2014-04-17 12:31:00,
2014-04-17 08:36:00,36.4,28.2,30.73,NNE,20,7.0,11.0,72,0.00,,,0.00,VWS V15.00,2014-04-17 12:36:00,
2014-04-17 08:41:00,36.3,27.8,30.73,NNE,13,7.0,16.0,71,0.00,,,0.00,VWS V15.00,2014-04-17 12:41:00,
2014-04-17 08:46:00,36.3,28.5,30.73,NE,37,6.0,16.0,73,0.00,,,0.00,VWS V15.00,2014-04-17 12:46:00,
2014-04-17 08:51:00,36.8,28.0,30.73,NE,35,7.0,16.0,70,0.00,,,0.00,VWS V15.00,2014-04-17 12:51:00,
2014-04-17 08:56:00,36.9,27.3,30.73,NE,38,5.0,18.0,68,0.00,,,0.00,VWS V15.00,2014-04-17 12:56:00,
2014-04-17 09:01:00,36.5,27.0,30.74,NE,41,6.0,9.0,68,0.00,,,0.00,VWS V15.00,2014-04-17 13:01:00,
2014-04-17 09:06:00,36.4,27.2,30.74,ENE,63,8.0,13.0,69,0.00,,,0.00,VWS V15.00,2014-04-17 13:06:00,
2014-04-17 09:11:00,36.4,27.2,30.74,ENE,78,3.0,14.0,69,0.00,,,0.00,VWS V15.00,2014-04-17 13:11:00,
2014-04-17 09:16:00,36.4,27.9,30.74,NNE,23,9.0,14.0,71,0.00,,,0.00,VWS V15.00,2014-04-17 13:16:00,
2014-04-17 09:21:00,36.4,27.6,30.74,NE,34,13.0,16.0,70,0.00,,,0.00,VWS V15.00,2014-04-17 13:21:00,
2014-04-17 09:26:00,36.3,27.5,30.75,NNE,12,13.0,16.0,70,0.00,,,0.00,VWS V15.00,2014-04-17 13:26:00,
2014-04-17 09:31:00,36.5,28.0,30.75,NNE,22,8.0,10.0,71,0.00,,,0.00,VWS V15.00,2014-04-17 13:31:00,
2014-04-17 09:36:00,36.7,27.9,30.75,North,5,7.0,14.0,70,0.00,,,0.00,VWS V15.00,2014-04-17 13:36:00,
2014-04-17 09:41:00,37.1,28.2,30.75,NNE,33,5.0,14.0,70,0.00,,,0.00,VWS V15.00,2014-04-17 13:41:00,
2014-04-17 09:46:00,37.2,27.6,30.75,NE,50,4.0,14.0,68,0.00,,,0.00,VWS V15.00,2014-04-17 13:46:00,
2014-04-17 09:51:00,37.3,28.1,30.75,NE,40,4.0,14.0,69,0.00,,,0.00,VWS V15.00,2014-04-17 13:51:00,
2014-04-17 09:56:00,37.5,28.3,30.75,NNE,19,8.0,14.0,69,0.00,,,0.00,VWS V15.00,2014-04-17 13:56:00,
2014-04-17 10:01:00,37.7,29.2,30.75,NE,41,7.0,7.0,71,0.00,,,0.00,VWS V15.00,2014-04-17 14:01:00,
2014-04-17 10:06:00,37.7,28.8,30.75,NE,53,8.0,13.0,70,0.00,,,0.00,VWS V15.00,2014-04-17 14:06:00,
2014-04-17 10:11:00,38.0,29.1,30.75,NE,34,11.0,14.0,70,0.00,,,0.00,VWS V15.00,2014-04-17 14:11:00,
2014-04-17 10:16:00,38.0,28.4,30.75,ENE,78,3.0,14.0,68,0.00,,,0.00,VWS V15.00,2014-04-17 14:16:00,
2014-04-17 10:21:00,38.1,28.5,30.75,ENE,57,5.0,14.0,68,0.00,,,0.00,VWS V15.00,2014-04-17 14:21:00,
2014-04-17 10:26:00,37.9,28.6,30.75,NNE,24,11.0,14.0,69,0.00,,,0.00,VWS V15.00,2014-04-17 14:26:00,
2014-04-17 10:31:00,37.7,28.1,30.75,ENE,58,8.0,13.0,68,0.00,,,0.00,VWS V15.00,2014-04-17 14:31:00,
2014-04-17 10:36:00,37.9,28.6,30.75,NNE,29,6.0,13.0,69,0.00,,,0.00,VWS V15.00,2014-04-17 14:36:00,
2014-04-17 10:41:00,38.1,28.8,30.75,NNE,19,6.0,13.0,69,0.00,,,0.00,VWS V15.00,2014-04-17 14:41:00,
2014-04-17 10:46:00,37.8,28.6,30.75,North,5,5.0,13.0,69,0.00,,,0.00,VWS V15.00,2014-04-17 14:46:00,
2014-04-17 10:51:00,37.8,28.6,30.75,NNE,30,9.0,15.0,69,0.00,,,0.00,VWS V15.00,2014-04-17 14:51:00,